Time;durP1;ratioP1;P1;durP2;ratioP2;P2;SDS_P1;SDS_P2;PMS_P1;PMS_P2;Temp;Humidity;BMP_temperature;BMP_pressure;BME280_temperature;BME280_humidity;BME280_pressure;Samples;Min_cycle;Max_cycle;Signal;HPM_P1;HPM_P2
2022/07/09 00:00:58;;;;;;;3.28;2.20;;;;;;;;;;4834801;29;20502;-61
2022/07/09 00:03:24;;;;;;;5.63;2.40;;;;;;;;;;4833836;29;20050;-61
2022/07/09 00:05:49;;;;;;;3.63;2.08;;;;;;;;;;4833942;29;20616;-62
2022/07/09 00:08:14;;;;;;;7.82;2.50;;;;;;;;;;4812507;29;20337;-62
2022/07/09 00:10:40;;;;;;;3.92;2.08;;;;;;;;;;4838941;29;20403;-61
2022/07/09 00:13:05;;;;;;;3.88;2.00;;;;;;;;;;4832732;29;20057;-60
2022/07/09 00:15:31;;;;;;;4.05;2.50;;;;;;;;;;4838515;29;20031;-62
2022/07/09 00:17:56;;;;;;;7.60;2.25;;;;;;;;;;4836208;29;20626;-61
2022/07/09 00:20:21;;;;;;;4.43;2.00;;;;;;;;;;4838193;29;20089;-60
2022/07/09 00:22:47;;;;;;;4.95;2.05;;;;;;;;;;4834409;29;20757;-61
2022/07/09 00:25:12;;;;;;;2.92;2.17;;;;;;;;;;4832645;29;20378;-61
2022/07/09 00:27:37;;;;;;;3.08;2.17;;;;;;;;;;4836909;29;20029;-60
2022/07/09 00:30:03;;;;;;;4.63;2.38;;;;;;;;;;4835394;29;20818;-61
2022/07/09 00:32:29;;;;;;;4.38;2.70;;;;;;;;;;4839361;29;20037;-62
2022/07/09 00:34:54;;;;;;;11.15;2.80;;;;;;;;;;4833225;29;20030;-61
2022/07/09 00:37:19;;;;;;;4.47;2.72;;;;;;;;;;4832744;29;20030;-61
2022/07/09 00:39:45;;;;;;;5.72;2.80;;;;;;;;;;4834154;29;20513;-60
2022/07/09 00:42:11;;;;;;;6.25;2.92;;;;;;;;;;4835930;29;20025;-63
2022/07/09 00:44:37;;;;;;;3.92;2.88;;;;;;;;;;4833027;29;20045;-63
2022/07/09 00:47:04;;;;;;;4.93;2.83;;;;;;;;;;4836654;29;20565;-61
2022/07/09 00:49:31;;;;;;;6.55;3.10;;;;;;;;;;4832183;29;20116;-60
2022/07/09 00:51:56;;;;;;;4.53;2.75;;;;;;;;;;4831181;29;20076;-62
2022/07/09 00:54:23;;;;;;;6.20;2.67;;;;;;;;;;4830339;29;20449;-60
2022/07/09 00:56:49;;;;;;;3.78;2.45;;;;;;;;;;4833962;29;20394;-62
2022/07/09 00:59:15;;;;;;;4.90;2.70;;;;;;;;;;4832517;29;20037;-61
2022/07/09 01:01:40;;;;;;;4.05;2.63;;;;;;;;;;4818534;29;20045;-63
2022/07/09 01:04:06;;;;;;;7.80;2.90;;;;;;;;;;4833723;29;20425;-60
2022/07/09 01:06:34;;;;;;;4.30;2.53;;;;;;;;;;4834460;29;20037;-60
2022/07/09 01:09:00;;;;;;;5.60;2.72;;;;;;;;;;4831509;29;20065;-60
2022/07/09 01:11:26;;;;;;;5.95;2.50;;;;;;;;;;4835636;29;20041;-63
2022/07/09 01:13:51;;;;;;;4.22;2.33;;;;;;;;;;4831654;29;20033;-62
2022/07/09 01:16:17;;;;;;;6.75;2.80;;;;;;;;;;4834919;29;20093;-59
2022/07/09 01:18:46;;;;;;;4.72;3.35;;;;;;;;;;4838532;29;20065;-61
2022/07/09 01:21:15;;;;;;;4.38;3.00;;;;;;;;;;4834869;29;20034;-62
2022/07/09 01:23:40;;;;;;;4.97;2.90;;;;;;;;;;4834033;29;20034;-62
2022/07/09 01:26:06;;;;;;;6.07;2.78;;;;;;;;;;4834159;29;20038;-63
2022/07/09 01:28:32;;;;;;;6.07;2.88;;;;;;;;;;4824201;29;20037;-62
2022/07/09 01:30:57;;;;;;;5.22;2.90;;;;;;;;;;4828348;29;20041;-62
2022/07/09 01:33:23;;;;;;;5.63;2.63;;;;;;;;;;4831032;29;20352;-62
2022/07/09 01:35:48;;;;;;;9.55;3.00;;;;;;;;;;4837525;29;20379;-61
2022/07/09 01:38:13;;;;;;;6.45;3.47;;;;;;;;;;4832479;29;20114;-65
2022/07/09 01:40:39;;;;;;;6.15;3.00;;;;;;;;;;4835354;29;20089;-58
2022/07/09 01:43:04;;;;;;;4.75;3.20;;;;;;;;;;4834768;29;20056;-61
2022/07/09 01:45:29;;;;;;;5.38;3.00;;;;;;;;;;4838973;29;20483;-62
2022/07/09 01:47:55;;;;;;;4.80;2.97;;;;;;;;;;4835540;29;20080;-61
2022/07/09 01:50:20;;;;;;;6.72;3.00;;;;;;;;;;4835969;29;20041;-63
2022/07/09 01:52:45;;;;;;;7.47;3.10;;;;;;;;;;4836048;29;20032;-62
2022/07/09 01:55:11;;;;;;;4.72;2.95;;;;;;;;;;4833109;29;20521;-60
2022/07/09 01:57:36;;;;;;;5.45;3.35;;;;;;;;;;4833568;29;20038;-61
2022/07/09 02:00:04;;;;;;;5.55;3.15;;;;;;;;;;4835439;29;20375;-60
2022/07/09 02:02:29;;;;;;;7.78;3.15;;;;;;;;;;4838353;29;20041;-63
2022/07/09 02:04:54;;;;;;;4.38;3.20;;;;;;;;;;4841589;29;20374;-62
2022/07/09 02:07:20;;;;;;;4.22;2.97;;;;;;;;;;4819743;29;20041;-62
2022/07/09 02:09:45;;;;;;;7.00;3.45;;;;;;;;;;4839051;29;20037;-61
2022/07/09 02:12:11;;;;;;;5.45;3.35;;;;;;;;;;4834207;29;20026;-62
2022/07/09 02:14:36;;;;;;;6.78;3.50;;;;;;;;;;4831607;29;20041;-62
2022/07/09 02:17:02;;;;;;;5.63;3.10;;;;;;;;;;4838822;29;20045;-60
2022/07/09 02:19:27;;;;;;;8.30;2.97;;;;;;;;;;4830071;29;20048;-60
2022/07/09 02:21:52;;;;;;;4.28;2.88;;;;;;;;;;4832850;29;20034;-63
2022/07/09 02:24:18;;;;;;;5.18;3.00;;;;;;;;;;4832880;29;20029;-61
2022/07/09 02:26:43;;;;;;;6.35;2.80;;;;;;;;;;4830294;29;20086;-60
2022/07/09 02:29:09;;;;;;;4.55;3.00;;;;;;;;;;4819480;29;20094;-58
2022/07/09 02:31:34;;;;;;;4.68;2.85;;;;;;;;;;4832598;29;20059;-64
2022/07/09 02:33:59;;;;;;;5.47;2.90;;;;;;;;;;4830379;29;20037;-63
2022/07/09 02:36:25;;;;;;;4.05;3.10;;;;;;;;;;4831436;29;20046;-61
2022/07/09 02:38:50;;;;;;;6.60;3.17;;;;;;;;;;4833281;29;20033;-61
2022/07/09 02:41:16;;;;;;;4.55;2.90;;;;;;;;;;4833162;29;20336;-61
2022/07/09 02:43:44;;;;;;;4.78;2.95;;;;;;;;;;4833202;29;20034;-61
2022/07/09 02:46:11;;;;;;;5.72;3.00;;;;;;;;;;4834873;29;20041;-63
2022/07/09 02:48:37;;;;;;;5.22;3.10;;;;;;;;;;4839765;29;20098;-60
2022/07/09 02:51:03;;;;;;;5.03;3.10;;;;;;;;;;4833140;29;20034;-60
2022/07/09 02:53:28;;;;;;;5.45;3.28;;;;;;;;;;4820590;29;20033;-62
2022/07/09 02:55:54;;;;;;;7.38;3.30;;;;;;;;;;4841159;29;20441;-60
2022/07/09 02:58:19;;;;;;;5.88;2.97;;;;;;;;;;4836069;29;20038;-61
2022/07/09 03:00:45;;;;;;;4.13;3.00;;;;;;;;;;4836922;29;20042;-60
2022/07/09 03:03:10;;;;;;;4.63;3.17;;;;;;;;;;4835723;29;20030;-63
2022/07/09 03:05:35;;;;;;;5.82;3.10;;;;;;;;;;4836413;29;20491;-62
2022/07/09 03:08:01;;;;;;;11.95;2.70;;;;;;;;;;4834017;29;20102;-61
2022/07/09 03:10:28;;;;;;;3.90;2.90;;;;;;;;;;4835149;29;20500;-61
2022/07/09 03:12:54;;;;;;;6.38;3.25;;;;;;;;;;4836463;29;20057;-60
2022/07/09 03:15:19;;;;;;;4.18;2.80;;;;;;;;;;4837361;29;20080;-62
2022/07/09 03:17:46;;;;;;;3.63;2.65;;;;;;;;;;4838912;29;20549;-61
2022/07/09 03:20:12;;;;;;;3.78;2.80;;;;;;;;;;4837522;29;20044;-61
2022/07/09 03:22:38;;;;;;;5.57;2.72;;;;;;;;;;4839113;29;20034;-63
2022/07/09 03:25:04;;;;;;;5.07;2.70;;;;;;;;;;4833557;29;20044;-63
2022/07/09 03:27:30;;;;;;;4.30;2.60;;;;;;;;;;4836121;29;20026;-60
2022/07/09 03:29:55;;;;;;;4.93;2.53;;;;;;;;;;4835059;29;20042;-59
2022/07/09 03:32:21;;;;;;;5.43;3.00;;;;;;;;;;4834423;29;20034;-60
2022/07/09 03:34:47;;;;;;;5.68;2.65;;;;;;;;;;4833927;29;20033;-60
2022/07/09 03:37:12;;;;;;;3.65;2.92;;;;;;;;;;4840704;29;20410;-62
2022/07/09 03:39:38;;;;;;;6.72;2.80;;;;;;;;;;4838327;29;20041;-61
2022/07/09 03:42:06;;;;;;;5.25;3.00;;;;;;;;;;4840753;29;20042;-62
2022/07/09 03:44:32;;;;;;;6.90;2.80;;;;;;;;;;4834155;29;20406;-62
2022/07/09 03:46:58;;;;;;;5.97;2.75;;;;;;;;;;4833319;29;20491;-61
2022/07/09 03:49:23;;;;;;;4.90;2.88;;;;;;;;;;4836181;29;20168;-60
2022/07/09 03:51:49;;;;;;;7.05;3.35;;;;;;;;;;4836444;29;20038;-62
2022/07/09 03:54:14;;;;;;;4.90;2.88;;;;;;;;;;4835882;29;20045;-62
2022/07/09 03:56:40;;;;;;;5.28;3.30;;;;;;;;;;4838277;29;20122;-60
2022/07/09 03:59:05;;;;;;;5.82;2.83;;;;;;;;;;4833988;29;20380;-61
2022/07/09 04:01:30;;;;;;;5.78;2.90;;;;;;;;;;4837224;29;20088;-59
2022/07/09 04:03:56;;;;;;;6.25;2.92;;;;;;;;;;4837980;29;20098;-61
2022/07/09 04:06:22;;;;;;;4.38;3.00;;;;;;;;;;4836194;29;20041;-62
2022/07/09 04:08:47;;;;;;;6.82;2.90;;;;;;;;;;4833827;29;20130;-61
2022/07/09 04:11:12;;;;;;;6.45;2.83;;;;;;;;;;4838722;29;20105;-61
2022/07/09 04:13:38;;;;;;;5.28;2.90;;;;;;;;;;4836341;29;20124;-62
2022/07/09 04:16:04;;;;;;;4.80;3.15;;;;;;;;;;4833989;29;20037;-62
2022/07/09 04:18:29;;;;;;;4.32;2.80;;;;;;;;;;4841450;29;20045;-60
2022/07/09 04:20:55;;;;;;;5.55;2.63;;;;;;;;;;4839997;29;20102;-59
2022/07/09 04:23:20;;;;;;;8.10;3.10;;;;;;;;;;4833739;29;20041;-60
2022/07/09 04:25:47;;;;;;;4.45;3.00;;;;;;;;;;4836489;29;20550;-61
2022/07/09 04:28:13;;;;;;;4.07;2.75;;;;;;;;;;4833718;29;20108;-61
2022/07/09 04:30:39;;;;;;;5.55;3.10;;;;;;;;;;4835674;29;20050;-61
2022/07/09 04:33:04;;;;;;;6.68;3.22;;;;;;;;;;4831409;29;20523;-62
2022/07/09 04:35:30;;;;;;;5.35;2.90;;;;;;;;;;4840477;29;20349;-61
2022/07/09 04:37:55;;;;;;;5.65;2.70;;;;;;;;;;4835344;29;20038;-59
2022/07/09 04:40:21;;;;;;;2.95;2.70;;;;;;;;;;4830692;29;20503;-61
2022/07/09 04:42:46;;;;;;;4.57;3.00;;;;;;;;;;4837616;29;20105;-61
2022/07/09 04:45:11;;;;;;;7.90;3.42;;;;;;;;;;4835030;29;20037;-62
2022/07/09 04:47:37;;;;;;;9.35;3.67;;;;;;;;;;4836575;29;20034;-62
2022/07/09 04:50:04;;;;;;;7.45;3.90;;;;;;;;;;4835209;29;20399;-60
2022/07/09 04:52:29;;;;;;;4.65;3.42;;;;;;;;;;4835795;29;20041;-60
2022/07/09 04:54:54;;;;;;;6.00;3.75;;;;;;;;;;4834557;29;20450;-62
2022/07/09 04:57:20;;;;;;;4.63;3.30;;;;;;;;;;4837047;29;20033;-61
2022/07/09 04:59:45;;;;;;;5.35;3.75;;;;;;;;;;4836342;29;20033;-61
2022/07/09 05:02:10;;;;;;;6.43;4.05;;;;;;;;;;4835025;29;20177;-61
2022/07/09 05:04:36;;;;;;;6.25;4.00;;;;;;;;;;4839377;29;20180;-60
2022/07/09 05:07:02;;;;;;;6.95;3.90;;;;;;;;;;4830858;29;20425;-61
2022/07/09 05:09:28;;;;;;;5.43;3.53;;;;;;;;;;4833469;29;20451;-62
2022/07/09 05:11:54;;;;;;;7.35;3.50;;;;;;;;;;4837278;29;20041;-62
2022/07/09 05:14:19;;;;;;;8.95;3.22;;;;;;;;;;4818776;29;20037;-60
2022/07/09 05:16:45;;;;;;;4.72;3.42;;;;;;;;;;4835540;29;20034;-60
2022/07/09 05:19:11;;;;;;;7.88;4.20;;;;;;;;;;4834861;29;20364;-60
2022/07/09 05:21:41;;;;;;;4.00;3.20;;;;;;;;;;4834291;29;20033;-59
2022/07/09 05:24:07;;;;;;;5.78;3.58;;;;;;;;;;4832907;29;20053;-60
2022/07/09 05:26:33;;;;;;;7.85;3.28;;;;;;;;;;4835162;29;20026;-60
2022/07/09 05:28:58;;;;;;;5.00;3.15;;;;;;;;;;4835225;29;20061;-62
2022/07/09 05:31:24;;;;;;;6.18;3.80;;;;;;;;;;4833391;29;20114;-61
2022/07/09 05:33:49;;;;;;;5.57;3.63;;;;;;;;;;4836330;29;20072;-61
2022/07/09 05:36:14;;;;;;;6.00;3.33;;;;;;;;;;4836334;29;20040;-60
2022/07/09 05:38:40;;;;;;;4.70;3.10;;;;;;;;;;4822171;29;20044;-61
2022/07/09 05:41:07;;;;;;;5.03;3.50;;;;;;;;;;4837524;29;20098;-61
2022/07/09 05:43:32;;;;;;;5.35;3.15;;;;;;;;;;4834330;29;20126;-59
2022/07/09 05:45:57;;;;;;;6.72;3.30;;;;;;;;;;4835094;29;20031;-59
2022/07/09 05:48:23;;;;;;;4.85;2.92;;;;;;;;;;4833131;29;20120;-62
2022/07/09 05:50:48;;;;;;;6.88;2.80;;;;;;;;;;4832517;29;20045;-61
2022/07/09 05:53:13;;;;;;;5.35;2.83;;;;;;;;;;4818545;29;20030;-62
2022/07/09 05:55:39;;;;;;;6.32;2.75;;;;;;;;;;4835695;29;20139;-61
2022/07/09 05:58:05;;;;;;;4.75;2.70;;;;;;;;;;4835302;29;20114;-61
2022/07/09 06:00:30;;;;;;;3.28;2.33;;;;;;;;;;4828879;29;20040;-61
2022/07/09 06:02:56;;;;;;;5.60;2.33;;;;;;;;;;4833592;29;20065;-60
2022/07/09 06:05:21;;;;;;;3.45;2.60;;;;;;;;;;4832350;29;20082;-61
2022/07/09 06:07:47;;;;;;;5.57;2.58;;;;;;;;;;4832802;29;20033;-61
2022/07/09 06:10:14;;;;;;;4.55;2.42;;;;;;;;;;4836260;29;20048;-61
2022/07/09 06:12:40;;;;;;;4.60;2.25;;;;;;;;;;4832786;29;20034;-60
2022/07/09 06:15:06;;;;;;;5.97;2.50;;;;;;;;;;4837309;29;20045;-61
2022/07/09 06:17:31;;;;;;;9.57;2.88;;;;;;;;;;4837730;29;20038;-60
2022/07/09 06:19:57;;;;;;;5.43;2.40;;;;;;;;;;4832725;29;20044;-62
2022/07/09 06:22:22;;;;;;;4.25;2.60;;;;;;;;;;4840889;29;20053;-61
2022/07/09 06:24:48;;;;;;;4.43;2.38;;;;;;;;;;4834916;29;20390;-64
2022/07/09 06:27:13;;;;;;;4.07;2.50;;;;;;;;;;4833610;29;20541;-61
2022/07/09 06:29:39;;;;;;;4.07;2.53;;;;;;;;;;4836111;29;20275;-61
2022/07/09 06:32:04;;;;;;;5.53;2.40;;;;;;;;;;4832023;29;20033;-61
2022/07/09 06:34:30;;;;;;;4.55;2.17;;;;;;;;;;4837408;29;20380;-60
2022/07/09 06:36:55;;;;;;;3.95;2.10;;;;;;;;;;4837322;29;20045;-60
2022/07/09 06:42:06;;;;;;;6.20;2.30;;;;;;;;;;4832388;29;20076;-62
2022/07/09 06:44:31;;;;;;;4.80;2.67;;;;;;;;;;4831739;29;20030;-60
2022/07/09 06:46:57;;;;;;;2.97;2.10;;;;;;;;;;4837038;29;20122;-62
2022/07/09 06:49:22;;;;;;;7.25;2.50;;;;;;;;;;4817859;29;20033;-61
2022/07/09 06:51:48;;;;;;;9.52;2.50;;;;;;;;;;4833143;29;20398;-62
2022/07/09 06:54:13;;;;;;;11.40;2.53;;;;;;;;;;4832895;29;20219;-61
2022/07/09 06:56:38;;;;;;;4.10;2.65;;;;;;;;;;4833315;29;20037;-60
2022/07/09 06:59:04;;;;;;;4.38;2.22;;;;;;;;;;4834683;29;20148;-60
2022/07/09 07:01:29;;;;;;;8.18;2.65;;;;;;;;;;4838190;29;20114;-62
2022/07/09 07:03:54;;;;;;;7.85;2.65;;;;;;;;;;4835374;29;20043;-60
2022/07/09 07:06:20;;;;;;;10.52;3.97;;;;;;;;;;4835442;29;20057;-63
2022/07/09 07:08:45;;;;;;;12.13;4.00;;;;;;;;;;4836379;29;20148;-62
2022/07/09 07:11:10;;;;;;;8.55;3.35;;;;;;;;;;4834301;29;20495;-61
2022/07/09 07:13:36;;;;;;;4.10;3.30;;;;;;;;;;4832076;29;20134;-66
2022/07/09 07:16:01;;;;;;;7.70;3.35;;;;;;;;;;4830859;29;20161;-60
2022/07/09 07:18:26;;;;;;;5.05;2.95;;;;;;;;;;4832000;29;20042;-60
2022/07/09 07:20:52;;;;;;;4.80;2.72;;;;;;;;;;4831688;29;20592;-60
2022/07/09 07:23:17;;;;;;;5.00;2.78;;;;;;;;;;4817230;29;20051;-61
2022/07/09 07:25:43;;;;;;;8.82;2.45;;;;;;;;;;4811745;29;20503;-60
2022/07/09 07:28:08;;;;;;;6.30;2.40;;;;;;;;;;4806392;29;20425;-61
2022/07/09 07:30:35;;;;;;;5.05;1.90;;;;;;;;;;4808927;29;20495;-60
2022/07/09 07:33:00;;;;;;;4.07;2.17;;;;;;;;;;4808957;29;20026;-61
2022/07/09 07:35:26;;;;;;;4.10;2.30;;;;;;;;;;4810983;29;20045;-61
2022/07/09 07:37:51;;;;;;;9.25;2.03;;;;;;;;;;4810106;29;20042;-61
2022/07/09 07:40:17;;;;;;;6.47;2.58;;;;;;;;;;4810278;29;20126;-60
2022/07/09 07:42:43;;;;;;;7.65;2.30;;;;;;;;;;4809039;29;20038;-60
2022/07/09 07:45:08;;;;;;;4.63;2.45;;;;;;;;;;4809916;29;20044;-61
2022/07/09 07:47:34;;;;;;;6.90;2.40;;;;;;;;;;4794895;29;20496;-61
2022/07/09 07:49:59;;;;;;;5.03;2.65;;;;;;;;;;4809910;29;20568;-61
2022/07/09 07:52:25;;;;;;;4.32;2.50;;;;;;;;;;4812599;29;20030;-61
2022/07/09 07:54:50;;;;;;;6.63;2.72;;;;;;;;;;4809817;29;20096;-61
2022/07/09 07:57:16;;;;;;;5.20;2.17;;;;;;;;;;4813353;29;20031;-61
2022/07/09 07:59:41;;;;;;;4.10;1.70;;;;;;;;;;4806199;29;20030;-61
2022/07/09 08:02:07;;;;;;;4.05;2.30;;;;;;;;;;4809559;29;20038;-61
2022/07/09 08:04:32;;;;;;;7.18;2.30;;;;;;;;;;4808073;29;20034;-61
2022/07/09 08:06:58;;;;;;;5.82;2.58;;;;;;;;;;4811506;29;20438;-61
2022/07/09 08:09:23;;;;;;;4.18;2.20;;;;;;;;;;4810184;29;20038;-61
2022/07/09 08:11:49;;;;;;;5.15;1.90;;;;;;;;;;4808855;29;20043;-59
2022/07/09 08:14:14;;;;;;;5.80;2.20;;;;;;;;;;4807519;29;20468;-60
2022/07/09 08:16:39;;;;;;;6.60;2.28;;;;;;;;;;4812241;29;20507;-60
2022/07/09 08:19:05;;;;;;;5.03;1.95;;;;;;;;;;4812395;29;20467;-61
2022/07/09 08:21:30;;;;;;;6.00;1.98;;;;;;;;;;4809118;29;20091;-60
2022/07/09 08:23:56;;;;;;;6.50;2.17;;;;;;;;;;4807935;29;20422;-61
2022/07/09 08:26:24;;;;;;;4.40;1.65;;;;;;;;;;4809854;29;20114;-61
2022/07/09 08:28:49;;;;;;;5.85;1.88;;;;;;;;;;4811667;29;20353;-61
2022/07/09 08:31:16;;;;;;;4.43;1.90;;;;;;;;;;4809216;29;20616;-61
2022/07/09 08:33:41;;;;;;;3.10;1.80;;;;;;;;;;4807804;29;20035;-61
2022/07/09 08:36:07;;;;;;;5.38;1.52;;;;;;;;;;4808442;29;20034;-61
2022/07/09 08:38:32;;;;;;;4.88;1.70;;;;;;;;;;4809660;29;20489;-60
2022/07/09 08:41:00;;;;;;;2.72;1.10;;;;;;;;;;4811466;29;20326;-61
2022/07/09 08:43:29;;;;;;;3.47;1.77;;;;;;;;;;4806860;29;20035;-60
2022/07/09 08:45:56;;;;;;;3.38;1.50;;;;;;;;;;4809656;29;20110;-59
2022/07/09 08:48:21;;;;;;;3.42;1.50;;;;;;;;;;4810196;29;20112;-59
2022/07/09 08:50:48;;;;;;;3.42;1.10;;;;;;;;;;4797071;29;20485;-60
2022/07/09 08:53:17;;;;;;;2.15;1.40;;;;;;;;;;4809426;29;20125;-59
2022/07/09 08:55:44;;;;;;;3.22;1.27;;;;;;;;;;4810531;29;20091;-60
2022/07/09 08:58:11;;;;;;;3.65;1.00;;;;;;;;;;4809061;29;20440;-59
2022/07/09 09:00:37;;;;;;;5.13;1.00;;;;;;;;;;4809678;29;20034;-59
2022/07/09 09:03:02;;;;;;;2.17;0.90;;;;;;;;;;4808469;29;20530;-59
2022/07/09 09:05:28;;;;;;;2.80;1.13;;;;;;;;;;4810278;29;20595;-61
2022/07/09 09:07:53;;;;;;;2.35;1.20;;;;;;;;;;4810713;29;20039;-58
2022/07/09 09:10:27;;;;;;;4.20;1.20;;;;;;;;;;4808476;29;20404;-61
2022/07/09 09:13:00;;;;;;;5.57;1.60;;;;;;;;;;4808965;29;20039;-60
2022/07/09 09:15:27;;;;;;;4.28;1.52;;;;;;;;;;4810360;29;20034;-61
2022/07/09 09:17:52;;;;;;;2.88;1.10;;;;;;;;;;4810965;29;20079;-60
2022/07/09 09:20:18;;;;;;;7.57;1.42;;;;;;;;;;4808416;29;20036;-61
2022/07/09 09:22:59;;;;;;;4.30;1.63;;;;;;;;;;4809943;29;20541;-61
2022/07/09 09:25:25;;;;;;;2.75;1.30;;;;;;;;;;4808074;29;20523;-64
2022/07/09 09:27:52;;;;;;;4.53;1.30;;;;;;;;;;4808064;29;20030;-60
2022/07/09 09:30:18;;;;;;;1.98;1.05;;;;;;;;;;4808333;29;20042;-60
2022/07/09 09:32:43;;;;;;;4.10;1.13;;;;;;;;;;4808535;29;20038;-60
2022/07/09 09:35:08;;;;;;;2.08;1.13;;;;;;;;;;4810721;29;20036;-60
2022/07/09 09:37:34;;;;;;;3.92;1.38;;;;;;;;;;4811591;29;20440;-61
2022/07/09 09:40:08;;;;;;;2.83;0.75;;;;;;;;;;4804962;29;20471;-59
2022/07/09 09:42:38;;;;;;;1.67;0.63;;;;;;;;;;4806536;29;20030;-61
2022/07/09 09:45:03;;;;;;;1.40;0.65;;;;;;;;;;4793265;29;20079;-61
2022/07/09 09:47:29;;;;;;;1.45;0.68;;;;;;;;;;4810298;29;20031;-61
2022/07/09 09:49:58;;;;;;;2.45;0.90;;;;;;;;;;4810947;29;20038;-60
2022/07/09 09:52:24;;;;;;;2.40;0.90;;;;;;;;;;4810869;29;20026;-61
2022/07/09 09:54:50;;;;;;;2.17;1.60;;;;;;;;;;4803732;29;20087;-62
2022/07/09 09:57:16;;;;;;;2.60;1.27;;;;;;;;;;4808140;29;20479;-61
2022/07/09 09:59:44;;;;;;;2.42;1.08;;;;;;;;;;4807301;29;20712;-61
2022/07/09 10:02:10;;;;;;;2.50;1.27;;;;;;;;;;4810519;29;20034;-62
2022/07/09 10:04:41;;;;;;;4.68;2.00;;;;;;;;;;4794976;29;20050;-61
2022/07/09 10:07:08;;;;;;;4.82;1.30;;;;;;;;;;4810903;29;20062;-61
2022/07/09 10:09:33;;;;;;;1.73;1.17;;;;;;;;;;4796236;29;20045;-59
2022/07/09 10:11:59;;;;;;;2.47;1.30;;;;;;;;;;4809244;29;20034;-61
2022/07/09 10:14:24;;;;;;;2.95;1.42;;;;;;;;;;4806091;29;20051;-58
2022/07/09 10:16:51;;;;;;;2.75;1.10;;;;;;;;;;4811949;29;20034;-61
2022/07/09 10:19:54;;;;;;;2.30;1.10;;;;;;;;;;4807513;29;20119;-61
2022/07/09 10:22:20;;;;;;;1.48;1.00;;;;;;;;;;4808459;29;20344;-63
2022/07/09 10:24:46;;;;;;;9.00;1.55;;;;;;;;;;4811716;29;20196;-61
2022/07/09 10:27:12;;;;;;;2.42;1.38;;;;;;;;;;4808980;29;20478;-60
2022/07/09 10:29:54;;;;;;;1.90;1.10;;;;;;;;;;4810695;29;20038;-61
2022/07/09 10:32:31;;;;;;;4.03;1.55;;;;;;;;;;4811344;29;20060;-61
2022/07/09 10:35:04;;;;;;;2.75;1.27;;;;;;;;;;4812110;29;20551;-60
2022/07/09 10:37:43;;;;;;;1.60;0.98;;;;;;;;;;4815503;29;20106;-61
2022/07/09 10:40:10;;;;;;;4.72;1.58;;;;;;;;;;4811280;29;20030;-60
2022/07/09 10:42:35;;;;;;;2.22;1.05;;;;;;;;;;4809162;29;20171;-59
2022/07/09 10:45:01;;;;;;;3.95;1.20;;;;;;;;;;4808361;29;20559;-60
2022/07/09 10:47:38;;;;;;;2.75;1.20;;;;;;;;;;4811934;29;20030;-60
2022/07/09 10:50:06;;;;;;;2.90;1.10;;;;;;;;;;4806844;29;20046;-60
2022/07/09 10:52:33;;;;;;;5.47;1.00;;;;;;;;;;4815261;29;20076;-58
2022/07/09 10:55:00;;;;;;;3.03;1.10;;;;;;;;;;4813635;29;20107;-61
2022/07/09 10:57:25;;;;;;;1.25;1.15;;;;;;;;;;4809790;29;20046;-58
2022/07/09 10:59:51;;;;;;;2.80;1.33;;;;;;;;;;4803681;29;20500;-60
2022/07/09 11:02:18;;;;;;;3.08;1.33;;;;;;;;;;4785714;29;20532;-58
2022/07/09 11:04:49;;;;;;;1.58;1.20;;;;;;;;;;4802382;29;20045;-61
2022/07/09 11:07:20;;;;;;;2.05;1.05;;;;;;;;;;4803619;29;20625;-58
2022/07/09 11:09:46;;;;;;;2.03;1.20;;;;;;;;;;4805966;29;20026;-61
2022/07/09 11:12:15;;;;;;;2.30;1.25;;;;;;;;;;4794701;29;20234;-61
2022/07/09 11:14:45;;;;;;;3.80;1.55;;;;;;;;;;4805619;29;20049;-60
2022/07/09 11:17:15;;;;;;;5.57;1.30;;;;;;;;;;4814584;29;20065;-60
2022/07/09 11:19:40;;;;;;;1.83;1.30;;;;;;;;;;4816662;29;20039;-61
2022/07/09 11:22:05;;;;;;;1.52;1.10;;;;;;;;;;4812633;29;20285;-60
2022/07/09 11:24:31;;;;;;;1.75;1.10;;;;;;;;;;4814837;29;20053;-60
2022/07/09 11:27:04;;;;;;;1.30;1.20;;;;;;;;;;4817796;29;20223;-60
2022/07/09 11:29:30;;;;;;;3.60;1.15;;;;;;;;;;4814073;29;20042;-61
2022/07/09 11:31:56;;;;;;;1.40;1.00;;;;;;;;;;4816738;29;20034;-61
2022/07/09 11:34:22;;;;;;;3.00;1.20;;;;;;;;;;4815286;29;20037;-60
2022/07/09 11:36:51;;;;;;;2.67;1.00;;;;;;;;;;4818770;29;20042;-59
2022/07/09 11:39:26;;;;;;;4.38;1.00;;;;;;;;;;4814317;29;20042;-60
2022/07/09 11:41:51;;;;;;;3.45;1.10;;;;;;;;;;4818571;29;20311;-60
2022/07/09 11:44:28;;;;;;;2.50;1.40;;;;;;;;;;4810542;29;20117;-60
2022/07/09 11:47:07;;;;;;;1.70;1.10;;;;;;;;;;4817455;29;20495;-59
2022/07/09 11:49:43;;;;;;;2.25;1.10;;;;;;;;;;4817141;29;20065;-61
2022/07/09 11:52:19;;;;;;;3.40;1.48;;;;;;;;;;4816274;29;20496;-60
2022/07/09 11:55:35;;;;;;;1.58;1.23;;;;;;;;;;4815150;29;20126;-60
2022/07/09 11:58:08;;;;;;;1.75;1.40;;;;;;;;;;4798896;29;20115;-59
2022/07/09 12:00:34;;;;;;;1.88;1.10;;;;;;;;;;4810579;29;20031;-60
2022/07/09 12:03:00;;;;;;;2.05;1.00;;;;;;;;;;4816162;29;20363;-59
2022/07/09 12:05:35;;;;;;;2.33;1.13;;;;;;;;;;4816860;29;20038;-60
2022/07/09 12:08:03;;;;;;;2.15;1.13;;;;;;;;;;4799386;29;20076;-60
2022/07/09 12:10:35;;;;;;;3.67;1.10;;;;;;;;;;4811058;29;20034;-59
2022/07/09 12:13:01;;;;;;;1.92;1.17;;;;;;;;;;4810820;29;20434;-62
2022/07/09 12:15:28;;;;;;;2.42;1.27;;;;;;;;;;4813320;29;20373;-62
2022/07/09 12:17:58;;;;;;;1.65;1.00;;;;;;;;;;4813887;29;20038;-61
2022/07/09 12:20:25;;;;;;;1.95;0.93;;;;;;;;;;4795745;29;20147;-59
2022/07/09 12:22:51;;;;;;;1.38;1.00;;;;;;;;;;4817008;29;20302;-61
2022/07/09 12:25:17;;;;;;;1.48;1.02;;;;;;;;;;4810967;29;20399;-60
2022/07/09 12:27:43;;;;;;;2.15;1.05;;;;;;;;;;4805608;29;20157;-60
2022/07/09 12:30:09;;;;;;;1.83;1.10;;;;;;;;;;4808431;29;20650;-62
2022/07/09 12:32:34;;;;;;;1.67;0.90;;;;;;;;;;4813229;29;20049;-59
2022/07/09 12:35:01;;;;;;;1.42;0.90;;;;;;;;;;4815358;29;20034;-63
2022/07/09 12:37:26;;;;;;;1.13;0.93;;;;;;;;;;4811268;29;20103;-60
2022/07/09 12:39:53;;;;;;;3.03;0.85;;;;;;;;;;4811741;29;20472;-58
2022/07/09 12:42:19;;;;;;;1.80;0.98;;;;;;;;;;4810882;29;20039;-60
2022/07/09 12:44:45;;;;;;;1.45;1.00;;;;;;;;;;4806699;29;20126;-60
2022/07/09 12:47:10;;;;;;;1.20;1.00;;;;;;;;;;4805500;29;20053;-62
2022/07/09 12:49:36;;;;;;;1.15;1.05;;;;;;;;;;4810575;29;20402;-60
2022/07/09 12:52:01;;;;;;;3.40;1.27;;;;;;;;;;4811825;29;20327;-61
2022/07/09 12:54:26;;;;;;;1.40;1.08;;;;;;;;;;4812540;29;20061;-60
2022/07/09 12:56:52;;;;;;;1.40;0.80;;;;;;;;;;4813535;29;20039;-61
2022/07/09 12:59:19;;;;;;;3.28;1.27;;;;;;;;;;4803939;29;20042;-60
2022/07/09 13:01:44;;;;;;;3.58;1.33;;;;;;;;;;4805835;29;20121;-61
2022/07/09 13:04:10;;;;;;;3.00;1.30;;;;;;;;;;4802371;29;20041;-60
2022/07/09 13:06:35;;;;;;;1.40;0.98;;;;;;;;;;4812145;29;20404;-61
2022/07/09 13:09:04;;;;;;;4.40;1.48;;;;;;;;;;4812760;29;20056;-62
2022/07/09 13:11:30;;;;;;;2.58;1.15;;;;;;;;;;4812707;29;20035;-60
2022/07/09 13:13:55;;;;;;;1.65;1.08;;;;;;;;;;4810476;29;20563;-61
2022/07/09 13:16:22;;;;;;;3.13;1.17;;;;;;;;;;4815591;29;20140;-63
2022/07/09 13:18:47;;;;;;;2.25;0.90;;;;;;;;;;4812452;29;20127;-60
2022/07/09 13:21:13;;;;;;;1.45;1.00;;;;;;;;;;4814750;29;20033;-62
2022/07/09 13:23:38;;;;;;;2.95;1.38;;;;;;;;;;4811782;29;20034;-61
2022/07/09 13:26:04;;;;;;;3.47;1.10;;;;;;;;;;4814390;29;20033;-64
2022/07/09 13:28:29;;;;;;;2.13;1.25;;;;;;;;;;4813828;29;20099;-62
2022/07/09 13:30:56;;;;;;;2.42;1.30;;;;;;;;;;4798385;29;20022;-62
2022/07/09 13:33:22;;;;;;;1.55;1.00;;;;;;;;;;4811242;29;20057;-62
2022/07/09 13:35:47;;;;;;;3.00;1.17;;;;;;;;;;4817607;29;20574;-61
2022/07/09 13:38:13;;;;;;;1.30;1.00;;;;;;;;;;4815468;29;20462;-62
2022/07/09 13:40:38;;;;;;;1.33;1.23;;;;;;;;;;4816156;29;20034;-63
2022/07/09 13:43:04;;;;;;;4.35;1.40;;;;;;;;;;4816225;29;20145;-61
2022/07/09 13:45:29;;;;;;;2.85;1.15;;;;;;;;;;4816728;29;20026;-61
2022/07/09 13:47:55;;;;;;;1.13;1.02;;;;;;;;;;4813639;29;20031;-61
2022/07/09 13:50:21;;;;;;;1.00;1.00;;;;;;;;;;4816561;29;20302;-60
2022/07/09 13:52:47;;;;;;;3.20;1.10;;;;;;;;;;4814887;29;20095;-62
2022/07/09 13:55:13;;;;;;;1.60;1.20;;;;;;;;;;4814813;29;20348;-60
2022/07/09 13:57:38;;;;;;;1.27;1.10;;;;;;;;;;4815264;29;20395;-60
2022/07/09 14:00:05;;;;;;;3.03;1.30;;;;;;;;;;4812371;29;20519;-60
2022/07/09 14:02:33;;;;;;;2.70;1.00;;;;;;;;;;4812616;29;20509;-61
2022/07/09 14:04:59;;;;;;;2.72;1.10;;;;;;;;;;4814336;29;20463;-63
2022/07/09 14:07:24;;;;;;;1.70;1.20;;;;;;;;;;4815509;29;20105;-63
2022/07/09 14:09:50;;;;;;;1.17;1.08;;;;;;;;;;4816142;29;20153;-60
2022/07/09 14:12:16;;;;;;;1.33;1.20;;;;;;;;;;4796195;29;20034;-59
2022/07/09 14:14:42;;;;;;;1.65;1.10;;;;;;;;;;4811960;29;20046;-61
2022/07/09 14:17:07;;;;;;;1.90;1.17;;;;;;;;;;4812697;29;20277;-60
2022/07/09 14:19:32;;;;;;;2.90;1.40;;;;;;;;;;4814064;29;20041;-61
2022/07/09 14:21:58;;;;;;;4.13;1.50;;;;;;;;;;4812531;29;20520;-61
2022/07/09 14:24:23;;;;;;;3.67;1.42;;;;;;;;;;4816099;29;20550;-62
2022/07/09 14:26:48;;;;;;;1.05;1.05;;;;;;;;;;4812008;29;20034;-61
2022/07/09 14:29:14;;;;;;;1.98;1.15;;;;;;;;;;4811476;29;20063;-61
2022/07/09 14:31:39;;;;;;;1.33;1.00;;;;;;;;;;4808162;29;20514;-62
2022/07/09 14:34:05;;;;;;;2.30;1.20;;;;;;;;;;4812482;29;20030;-62
2022/07/09 14:36:30;;;;;;;1.58;1.25;;;;;;;;;;4814510;29;20042;-63
2022/07/09 14:38:56;;;;;;;1.17;1.08;;;;;;;;;;4811889;29;20066;-59
2022/07/09 14:41:22;;;;;;;1.25;1.15;;;;;;;;;;4818109;29;20041;-62